Time;durP1;ratioP1;P1;durP2;ratioP2;P2;SDS_P1;SDS_P2;PMS_P1;PMS_P2;Temp;Humidity;BMP_temperature;BMP_pressure;BME280_temperature;BME280_humidity;BME280_pressure;Samples;Min_cycle;Max_cycle;Signal;HPM_P1;HPM_P2
2022/01/17 00:01:38;;;;;;;18.15;9.68;;;;;;;;;;5044776;28;20130;-59
2022/01/17 00:04:04;;;;;;;18.55;10.27;;;;;;;;;;5042927;28;20087;-59
2022/01/17 00:06:30;;;;;;;19.33;10.10;;;;;;;;;;5043424;28;20052;-59
2022/01/17 00:08:56;;;;;;;19.90;10.52;;;;;;;;;;5044678;28;20456;-59
2022/01/17 00:11:23;;;;;;;19.90;10.45;;;;;;;;;;5044569;28;20420;-59
2022/01/17 00:13:49;;;;;;;22.10;9.70;;;;;;;;;;5044074;28;20071;-59
2022/01/17 00:16:20;;;;;;;20.60;11.30;;;;;;;;;;5043969;28;20079;-59
2022/01/17 00:21:13;;;;;;;20.35;10.25;;;;;;;;;;5043911;28;20063;-60
2022/01/17 00:23:40;;;;;;;20.00;10.98;;;;;;;;;;5046713;28;20060;-60
2022/01/17 00:26:07;;;;;;;19.80;10.68;;;;;;;;;;5043382;28;20029;-60
2022/01/17 00:28:35;;;;;;;23.58;10.95;;;;;;;;;;5043375;28;20029;-60
2022/01/17 00:31:04;;;;;;;21.90;10.70;;;;;;;;;;5044457;28;20435;-60
2022/01/17 00:33:32;;;;;;;21.92;11.88;;;;;;;;;;5044078;28;20027;-60
2022/01/17 00:35:58;;;;;;;19.65;10.52;;;;;;;;;;5027594;28;20125;-60
2022/01/17 00:38:25;;;;;;;22.27;11.10;;;;;;;;;;5044095;28;20470;-60
2022/01/17 00:40:52;;;;;;;20.17;10.48;;;;;;;;;;5044661;28;20515;-60
2022/01/17 00:43:18;;;;;;;23.70;10.50;;;;;;;;;;5043846;28;20036;-60
2022/01/17 00:45:45;;;;;;;20.23;10.60;;;;;;;;;;5044384;28;20032;-60
2022/01/17 00:48:12;;;;;;;19.73;10.02;;;;;;;;;;5043286;28;20083;-60
2022/01/17 00:50:39;;;;;;;20.98;10.73;;;;;;;;;;5043103;28;20348;-60
2022/01/17 00:53:08;;;;;;;21.90;11.68;;;;;;;;;;5044427;28;20407;-60
2022/01/17 00:55:36;;;;;;;22.42;11.43;;;;;;;;;;5044418;28;20017;-60
2022/01/17 00:58:03;;;;;;;19.83;11.43;;;;;;;;;;5042970;28;20029;-60
2022/01/17 01:00:29;;;;;;;23.33;11.57;;;;;;;;;;5044322;28;20029;-60
2022/01/17 01:02:56;;;;;;;21.42;11.80;;;;;;;;;;5044359;28;20455;-60
2022/01/17 01:05:22;;;;;;;22.13;11.95;;;;;;;;;;5027061;28;20489;-60
2022/01/17 01:07:48;;;;;;;24.08;11.73;;;;;;;;;;5038543;28;20199;-60
2022/01/17 01:10:14;;;;;;;22.60;12.00;;;;;;;;;;5043352;28;20036;-60
2022/01/17 01:12:43;;;;;;;24.98;12.48;;;;;;;;;;5042843;28;20516;-60
2022/01/17 01:15:20;;;;;;;25.92;13.30;;;;;;;;;;5044051;28;20049;-61
2022/01/17 01:17:51;;;;;;;27.13;13.43;;;;;;;;;;5043435;28;20037;-59
2022/01/17 01:28:16;;;;;;;27.13;12.88;;;;;;;;;;5034235;28;20086;-59
2022/01/17 01:30:47;;;;;;;27.70;13.38;;;;;;;;;;5037644;28;20060;-59
2022/01/17 01:33:19;;;;;;;25.92;12.25;;;;;;;;;;5022467;28;20570;-59
2022/01/17 01:35:47;;;;;;;24.50;12.35;;;;;;;;;;5024238;28;20488;-60
2022/01/17 01:38:13;;;;;;;25.33;12.30;;;;;;;;;;5023804;28;20413;-60
2022/01/17 01:40:40;;;;;;;27.27;13.80;;;;;;;;;;5024063;28;20037;-59
2022/01/17 01:43:06;;;;;;;27.05;12.90;;;;;;;;;;5034280;28;20461;-59
2022/01/17 01:45:33;;;;;;;27.45;13.40;;;;;;;;;;5042545;28;20029;-60
2022/01/17 01:47:59;;;;;;;27.20;12.73;;;;;;;;;;5043861;28;20369;-59
2022/01/17 01:50:26;;;;;;;24.23;12.90;;;;;;;;;;5044199;28;20060;-60
2022/01/17 01:52:53;;;;;;;29.73;13.73;;;;;;;;;;5043713;28;20027;-60
2022/01/17 01:55:21;;;;;;;28.73;14.32;;;;;;;;;;5034668;28;20022;-59
2022/01/17 01:57:48;;;;;;;24.98;13.30;;;;;;;;;;5030941;28;20021;-59
2022/01/17 02:00:15;;;;;;;26.33;13.40;;;;;;;;;;5028325;28;20109;-59
2022/01/17 02:02:41;;;;;;;27.95;13.70;;;;;;;;;;5024125;28;20087;-59
2022/01/17 02:05:07;;;;;;;29.55;14.30;;;;;;;;;;5034693;28;20068;-60
2022/01/17 02:07:33;;;;;;;27.80;13.60;;;;;;;;;;5043026;28;20041;-60
2022/01/17 02:09:59;;;;;;;28.60;14.18;;;;;;;;;;5043907;28;20032;-60
2022/01/17 02:12:29;;;;;;;28.00;13.85;;;;;;;;;;5043420;28;20071;-59
2022/01/17 02:14:55;;;;;;;28.08;14.10;;;;;;;;;;5044562;28;20021;-60
2022/01/17 02:17:24;;;;;;;26.88;13.52;;;;;;;;;;5043522;28;20025;-60
2022/01/17 02:20:05;;;;;;;31.02;14.75;;;;;;;;;;5042728;28;20025;-58
2022/01/17 02:22:31;;;;;;;29.60;13.80;;;;;;;;;;5047463;28;20570;-57
2022/01/17 02:24:58;;;;;;;28.38;14.88;;;;;;;;;;5033624;28;20025;-58
2022/01/17 02:27:24;;;;;;;26.88;13.63;;;;;;;;;;5032064;28;20025;-57
2022/01/17 02:29:50;;;;;;;25.33;13.30;;;;;;;;;;5047165;28;20021;-57
2022/01/17 02:32:16;;;;;;;25.58;13.38;;;;;;;;;;5046909;28;20430;-57
2022/01/17 02:34:43;;;;;;;26.27;13.00;;;;;;;;;;5047481;28;20044;-57
2022/01/17 02:37:10;;;;;;;26.92;12.68;;;;;;;;;;5047513;28;20029;-58
2022/01/17 02:39:37;;;;;;;26.17;13.05;;;;;;;;;;5041825;28;20066;-57
2022/01/17 02:42:04;;;;;;;26.55;12.68;;;;;;;;;;5048061;28;20535;-57
2022/01/17 02:44:30;;;;;;;25.10;12.50;;;;;;;;;;5048912;28;20059;-57
2022/01/17 02:46:56;;;;;;;29.58;14.02;;;;;;;;;;5049011;28;20053;-57
2022/01/17 02:49:22;;;;;;;27.38;13.32;;;;;;;;;;5047210;28;20097;-57
2022/01/17 02:51:48;;;;;;;29.70;13.68;;;;;;;;;;5048750;28;20029;-57
2022/01/17 02:54:17;;;;;;;26.25;13.18;;;;;;;;;;5048311;28;20023;-58
2022/01/17 02:56:44;;;;;;;30.92;13.90;;;;;;;;;;5036638;28;20599;-57
2022/01/17 02:59:10;;;;;;;29.17;14.82;;;;;;;;;;5048004;28;20032;-57
2022/01/17 03:01:36;;;;;;;31.58;15.18;;;;;;;;;;5048126;28;20095;-57
2022/01/17 03:04:04;;;;;;;31.02;15.07;;;;;;;;;;5048349;28;20060;-57
2022/01/17 03:06:30;;;;;;;31.30;14.70;;;;;;;;;;5030599;28;20112;-59
2022/01/17 03:08:56;;;;;;;28.63;13.30;;;;;;;;;;5028756;28;20409;-59
2022/01/17 03:11:24;;;;;;;28.40;13.55;;;;;;;;;;5028145;28;20087;-59
2022/01/17 03:13:51;;;;;;;30.70;14.35;;;;;;;;;;5044922;28;20557;-59
2022/01/17 03:16:18;;;;;;;30.23;13.73;;;;;;;;;;5047901;28;20029;-59
2022/01/17 03:18:46;;;;;;;28.83;13.43;;;;;;;;;;5048087;28;20031;-59
2022/01/17 03:21:13;;;;;;;26.05;13.18;;;;;;;;;;5030386;28;20520;-59
2022/01/17 03:23:40;;;;;;;30.13;14.13;;;;;;;;;;5028228;28;20100;-59
2022/01/17 03:26:06;;;;;;;29.08;14.00;;;;;;;;;;5028062;28;20033;-59
2022/01/17 03:28:33;;;;;;;31.33;14.60;;;;;;;;;;5041542;28;20025;-59
2022/01/17 03:30:59;;;;;;;25.45;12.52;;;;;;;;;;5048412;28;20025;-59
2022/01/17 03:33:25;;;;;;;25.55;12.73;;;;;;;;;;5048237;28;20079;-59
2022/01/17 03:35:52;;;;;;;28.45;14.15;;;;;;;;;;5031164;28;20060;-59
2022/01/17 03:38:19;;;;;;;27.13;12.90;;;;;;;;;;5027761;28;20032;-59
2022/01/17 03:40:47;;;;;;;30.02;14.52;;;;;;;;;;5028016;28;20057;-59
2022/01/17 03:43:13;;;;;;;25.88;13.30;;;;;;;;;;5039018;28;20036;-59
2022/01/17 03:45:39;;;;;;;24.85;12.13;;;;;;;;;;5032077;28;20061;-59
2022/01/17 03:48:06;;;;;;;25.95;12.70;;;;;;;;;;5027961;28;20589;-59
2022/01/17 03:50:32;;;;;;;26.75;12.70;;;;;;;;;;5027432;28;20124;-59
2022/01/17 03:52:58;;;;;;;28.55;13.70;;;;;;;;;;5028350;28;20030;-59
2022/01/17 03:55:24;;;;;;;25.50;12.23;;;;;;;;;;5042743;28;20473;-59
2022/01/17 03:57:51;;;;;;;25.65;12.60;;;;;;;;;;5035735;28;20387;-59
2022/01/17 04:00:24;;;;;;;26.35;12.82;;;;;;;;;;5045625;28;20037;-59
2022/01/17 04:02:51;;;;;;;25.23;12.32;;;;;;;;;;5047455;28;20718;-58
2022/01/17 04:05:17;;;;;;;23.77;12.30;;;;;;;;;;5047004;28;20059;-59
2022/01/17 04:07:43;;;;;;;27.17;13.40;;;;;;;;;;5047112;28;20045;-59
2022/01/17 04:10:09;;;;;;;30.13;13.85;;;;;;;;;;5047089;28;20059;-59
2022/01/17 04:12:36;;;;;;;29.40;13.32;;;;;;;;;;5046130;28;20475;-59
2022/01/17 04:15:02;;;;;;;28.10;12.68;;;;;;;;;;5046225;28;20435;-59
2022/01/17 04:17:29;;;;;;;25.80;12.80;;;;;;;;;;5046677;28;20400;-59
2022/01/17 04:20:03;;;;;;;28.30;12.88;;;;;;;;;;5046980;28;20028;-58
2022/01/17 04:22:32;;;;;;;;;;;;;;;;;;5047381;28;20057;-59
2022/01/17 04:24:58;;;;;;;27.35;13.35;;;;;;;;;;5047449;28;20825;-58
2022/01/17 04:27:24;;;;;;;31.08;14.88;;;;;;;;;;5046089;28;20512;-58
2022/01/17 04:29:50;;;;;;;25.75;12.27;;;;;;;;;;5031799;28;20033;-59
2022/01/17 04:32:17;;;;;;;27.75;13.40;;;;;;;;;;5026822;28;20500;-59
2022/01/17 04:34:43;;;;;;;26.25;12.68;;;;;;;;;;5026952;28;20026;-58
2022/01/17 04:37:09;;;;;;;25.70;12.73;;;;;;;;;;5026765;28;20027;-59
2022/01/17 04:39:35;;;;;;;26.38;13.00;;;;;;;;;;5038833;28;20512;-58
2022/01/17 04:42:09;;;;;;;23.65;11.90;;;;;;;;;;5046550;28;20545;-59
2022/01/17 04:47:21;;;;;;;27.73;13.18;;;;;;;;;;5046713;28;20450;-58
2022/01/17 04:49:47;;;;;;;26.88;12.65;;;;;;;;;;5046477;28;20109;-58
2022/01/17 04:52:14;;;;;;;26.88;13.02;;;;;;;;;;5046163;28;20531;-59
2022/01/17 04:54:43;;;;;;;26.50;13.02;;;;;;;;;;5045851;28;20029;-59
2022/01/17 04:57:10;;;;;;;28.40;13.82;;;;;;;;;;5045575;28;20049;-58
2022/01/17 04:59:36;;;;;;;27.05;13.52;;;;;;;;;;5046171;28;20082;-59
2022/01/17 05:02:03;;;;;;;27.85;14.05;;;;;;;;;;5047055;28;20481;-59
2022/01/17 05:04:29;;;;;;;27.38;12.77;;;;;;;;;;5046998;28;20493;-59
2022/01/17 05:06:55;;;;;;;27.27;13.90;;;;;;;;;;5046191;28;20075;-58
2022/01/17 05:09:21;;;;;;;29.13;13.50;;;;;;;;;;5030677;28;20034;-59
2022/01/17 05:11:47;;;;;;;29.05;13.60;;;;;;;;;;5026645;28;20025;-59
2022/01/17 05:14:13;;;;;;;25.50;12.57;;;;;;;;;;5045444;28;20108;-58
2022/01/17 05:16:46;;;;;;;28.25;13.40;;;;;;;;;;5046207;28;20032;-58
2022/01/17 05:21:57;;;;;;;28.50;13.30;;;;;;;;;;5058703;28;20036;-58
2022/01/17 05:24:23;;;;;;;27.77;12.80;;;;;;;;;;5045218;28;20044;-58
2022/01/17 05:26:49;;;;;;;26.80;12.75;;;;;;;;;;5045501;28;20387;-58
2022/01/17 05:29:16;;;;;;;28.60;12.90;;;;;;;;;;5045524;28;20033;-58
2022/01/17 05:31:42;;;;;;;26.92;14.13;;;;;;;;;;5046171;28;20047;-58
2022/01/17 05:34:08;;;;;;;30.15;14.13;;;;;;;;;;5044949;28;20476;-59
2022/01/17 05:36:34;;;;;;;30.95;14.57;;;;;;;;;;5045856;28;20025;-59
2022/01/17 05:39:00;;;;;;;28.48;13.73;;;;;;;;;;5046428;28;20037;-59
2022/01/17 05:41:26;;;;;;;24.65;11.80;;;;;;;;;;5045669;28;20504;-59
2022/01/17 05:43:52;;;;;;;28.60;13.90;;;;;;;;;;5045091;28;20400;-58
2022/01/17 05:46:18;;;;;;;27.50;13.88;;;;;;;;;;5045622;28;20523;-59
2022/01/17 05:48:44;;;;;;;30.70;14.32;;;;;;;;;;5044136;28;20463;-59
2022/01/17 05:51:10;;;;;;;30.08;14.48;;;;;;;;;;5046200;28;20412;-59
2022/01/17 05:53:36;;;;;;;31.35;13.90;;;;;;;;;;5045493;28;20476;-59
2022/01/17 05:56:02;;;;;;;28.35;13.73;;;;;;;;;;5042985;28;20029;-59
2022/01/17 05:58:28;;;;;;;28.70;14.05;;;;;;;;;;5048370;28;20036;-58
2022/01/17 06:00:54;;;;;;;32.40;15.07;;;;;;;;;;5049709;28;20695;-58
2022/01/17 06:03:20;;;;;;;29.35;14.75;;;;;;;;;;5049469;28;20032;-59
2022/01/17 06:05:46;;;;;;;30.98;13.93;;;;;;;;;;5049332;28;20075;-59
2022/01/17 06:08:12;;;;;;;30.05;14.23;;;;;;;;;;5048802;28;20504;-59
2022/01/17 06:10:38;;;;;;;26.90;13.27;;;;;;;;;;5047347;28;20808;-59
2022/01/17 06:13:05;;;;;;;27.65;14.00;;;;;;;;;;5047847;28;20534;-59
2022/01/17 06:15:31;;;;;;;29.35;14.32;;;;;;;;;;5049376;28;20036;-58
2022/01/17 06:17:57;;;;;;;29.42;14.13;;;;;;;;;;5049439;28;20112;-58
2022/01/17 06:20:23;;;;;;;30.08;14.15;;;;;;;;;;5048810;28;20447;-58
2022/01/17 06:22:49;;;;;;;28.27;14.43;;;;;;;;;;5048856;28;20037;-58
2022/01/17 06:25:15;;;;;;;29.92;14.05;;;;;;;;;;5048184;28;20050;-58
2022/01/17 06:27:41;;;;;;;25.23;12.63;;;;;;;;;;5048147;28;20029;-58
2022/01/17 06:30:08;;;;;;;27.98;13.90;;;;;;;;;;5046544;28;20774;-58
2022/01/17 06:32:34;;;;;;;27.90;13.82;;;;;;;;;;5042103;28;20040;-58
2022/01/17 06:35:03;;;;;;;31.73;14.32;;;;;;;;;;5042588;28;20029;-58
2022/01/17 06:37:29;;;;;;;27.35;14.57;;;;;;;;;;5037460;28;20026;-58
2022/01/17 06:39:56;;;;;;;29.10;15.05;;;;;;;;;;5030957;28;20037;-58
2022/01/17 06:42:23;;;;;;;30.42;14.57;;;;;;;;;;5037171;28;20025;-58
2022/01/17 06:44:49;;;;;;;27.02;14.40;;;;;;;;;;5049661;28;20428;-58
2022/01/17 06:47:16;;;;;;;28.85;14.52;;;;;;;;;;5049398;28;20078;-58
2022/01/17 06:49:42;;;;;;;30.45;14.55;;;;;;;;;;5063404;28;20546;-58
2022/01/17 06:52:08;;;;;;;28.55;13.98;;;;;;;;;;5068785;28;20048;-58
2022/01/17 06:54:34;;;;;;;29.23;14.23;;;;;;;;;;5046730;28;20025;-59
2022/01/17 06:57:00;;;;;;;26.05;13.23;;;;;;;;;;5061748;28;20403;-58
2022/01/17 06:59:26;;;;;;;31.02;14.68;;;;;;;;;;5048664;28;20488;-59
2022/01/17 07:01:52;;;;;;;33.17;16.77;;;;;;;;;;5044904;28;20033;-58
2022/01/17 07:04:19;;;;;;;30.25;15.10;;;;;;;;;;5045755;28;20081;-58
2022/01/17 07:06:45;;;;;;;31.10;15.68;;;;;;;;;;5040083;28;20856;-57
2022/01/17 07:09:16;;;;;;;34.35;17.20;;;;;;;;;;5048302;28;20468;-58
2022/01/17 07:11:43;;;;;;;34.28;17.13;;;;;;;;;;5049082;28;20029;-60
2022/01/17 07:14:09;;;;;;;30.13;16.00;;;;;;;;;;5044444;28;20048;-59
2022/01/17 07:16:36;;;;;;;34.13;15.70;;;;;;;;;;5048665;28;20052;-59
2022/01/17 07:19:03;;;;;;;29.02;14.95;;;;;;;;;;5047928;28;20037;-59
2022/01/17 07:21:29;;;;;;;29.90;15.30;;;;;;;;;;5049206;28;20033;-59
2022/01/17 07:23:55;;;;;;;32.88;14.75;;;;;;;;;;5048827;28;20055;-59
2022/01/17 07:26:21;;;;;;;29.48;14.73;;;;;;;;;;5062139;28;20082;-59
2022/01/17 07:28:47;;;;;;;28.67;13.95;;;;;;;;;;5047820;28;20024;-59
2022/01/17 07:31:15;;;;;;;33.17;15.70;;;;;;;;;;5047787;28;20017;-59
2022/01/17 07:33:41;;;;;;;34.88;15.60;;;;;;;;;;5039417;28;20542;-59
2022/01/17 07:36:07;;;;;;;31.70;15.07;;;;;;;;;;5028797;28;20393;-59
2022/01/17 07:38:36;;;;;;;31.05;14.50;;;;;;;;;;5028505;28;20067;-59
2022/01/17 07:41:03;;;;;;;30.52;14.25;;;;;;;;;;5031643;28;20116;-59
2022/01/17 07:43:29;;;;;;;35.60;15.65;;;;;;;;;;5041141;28;20726;-59
2022/01/17 07:46:04;;;;;;;30.10;14.77;;;;;;;;;;5047211;28;20069;-59
2022/01/17 07:48:56;;;;;;;31.35;14.18;;;;;;;;;;5037047;28;20033;-59
2022/01/17 07:51:22;;;;;;;31.33;13.98;;;;;;;;;;5027590;28;20041;-59
2022/01/17 07:53:48;;;;;;;32.42;15.65;;;;;;;;;;5044644;28;20377;-59
2022/01/17 07:56:14;;;;;;;30.25;14.38;;;;;;;;;;5047456;28;20033;-59
2022/01/17 07:58:41;;;;;;;31.08;14.43;;;;;;;;;;5046269;28;20727;-58
2022/01/17 08:01:08;;;;;;;34.67;15.32;;;;;;;;;;5047003;28;20052;-59
2022/01/17 08:03:34;;;;;;;32.33;15.52;;;;;;;;;;5046486;28;20040;-60
2022/01/17 08:06:00;;;;;;;33.38;15.10;;;;;;;;;;5047438;28;20036;-59
2022/01/17 08:08:26;;;;;;;37.03;16.10;;;;;;;;;;5044732;28;20036;-58
2022/01/17 08:10:52;;;;;;;34.15;16.13;;;;;;;;;;5026749;28;20044;-59
2022/01/17 08:13:18;;;;;;;31.83;15.63;;;;;;;;;;5029426;28;20501;-59
2022/01/17 08:15:45;;;;;;;36.00;15.85;;;;;;;;;;5028004;28;20385;-60
2022/01/17 08:18:12;;;;;;;35.53;15.90;;;;;;;;;;5036217;28;20029;-57
2022/01/17 08:20:38;;;;;;;35.42;15.73;;;;;;;;;;5040347;28;20112;-57
2022/01/17 08:23:04;;;;;;;35.97;16.10;;;;;;;;;;5045179;28;20103;-58
2022/01/17 08:25:30;;;;;;;36.35;16.08;;;;;;;;;;5054903;28;20079;-59
2022/01/17 08:27:56;;;;;;;32.92;15.25;;;;;;;;;;5056130;28;20025;-59
2022/01/17 08:30:23;;;;;;;34.20;14.85;;;;;;;;;;5046601;28;20040;-59
2022/01/17 08:32:50;;;;;;;34.33;14.98;;;;;;;;;;5040637;28;20022;-59
2022/01/17 08:35:16;;;;;;;33.95;15.00;;;;;;;;;;5026313;28;20037;-59
2022/01/17 08:37:43;;;;;;;37.78;16.33;;;;;;;;;;5044696;28;20078;-58
2022/01/17 08:40:09;;;;;;;36.35;15.68;;;;;;;;;;5048382;28;20068;-60
2022/01/17 08:42:37;;;;;;;30.20;13.50;;;;;;;;;;5038462;28;20033;-59
2022/01/17 08:45:04;;;;;;;31.80;14.23;;;;;;;;;;5044958;28;20442;-60
2022/01/17 08:47:31;;;;;;;31.23;14.57;;;;;;;;;;5047560;28;20087;-59
2022/01/17 08:49:57;;;;;;;30.23;13.55;;;;;;;;;;5046424;28;20064;-60
2022/01/17 08:52:23;;;;;;;32.10;13.82;;;;;;;;;;5046515;28;20058;-60
2022/01/17 08:54:49;;;;;;;30.52;13.88;;;;;;;;;;5046084;28;20056;-60
2022/01/17 08:57:17;;;;;;;30.08;13.57;;;;;;;;;;5044531;28;20017;-59
2022/01/17 09:00:01;;;;;;;32.08;13.40;;;;;;;;;;5046059;28;20056;-59
2022/01/17 09:02:28;;;;;;;28.33;13.02;;;;;;;;;;5031012;28;20382;-59
2022/01/17 09:04:55;;;;;;;29.27;13.73;;;;;;;;;;5042268;28;20033;-59
2022/01/17 09:07:21;;;;;;;28.75;13.50;;;;;;;;;;5044608;28;20048;-59
2022/01/17 09:09:47;;;;;;;28.83;12.88;;;;;;;;;;5045937;28;20559;-59
2022/01/17 09:12:14;;;;;;;33.58;14.35;;;;;;;;;;5041882;28;20075;-59
2022/01/17 09:14:41;;;;;;;31.48;13.55;;;;;;;;;;5043318;28;20029;-59
2022/01/17 09:17:07;;;;;;;31.75;13.55;;;;;;;;;;5046651;28;20044;-59
2022/01/17 09:19:37;;;;;;;28.00;13.15;;;;;;;;;;5046611;28;20035;-59
2022/01/17 09:22:05;;;;;;;30.80;13.45;;;;;;;;;;5035284;28;20108;-59
2022/01/17 09:24:31;;;;;;;30.98;14.00;;;;;;;;;;5045736;28;20075;-59
2022/01/17 09:26:57;;;;;;;28.70;12.90;;;;;;;;;;5039467;28;20427;-59
2022/01/17 09:29:24;;;;;;;30.70;13.45;;;;;;;;;;5037366;28;20504;-59
2022/01/17 09:31:50;;;;;;;28.17;12.68;;;;;;;;;;5048474;28;20033;-57
2022/01/17 09:34:16;;;;;;;30.92;13.48;;;;;;;;;;5046537;28;20101;-57
2022/01/17 09:36:42;;;;;;;31.85;13.68;;;;;;;;;;5030838;28;20037;-57
2022/01/17 09:39:09;;;;;;;28.33;13.15;;;;;;;;;;5030853;28;20033;-57
2022/01/17 09:41:36;;;;;;;27.67;13.27;;;;;;;;;;5049122;28;20033;-57
2022/01/17 09:44:04;;;;;;;30.20;13.52;;;;;;;;;;5038896;28;20033;-57
2022/01/17 09:46:32;;;;;;;29.10;13.18;;;;;;;;;;5033618;28;20475;-57
2022/01/17 09:49:14;;;;;;;30.40;12.75;;;;;;;;;;5031418;28;20029;-57
2022/01/17 09:54:25;;;;;;;33.35;13.82;;;;;;;;;;5048952;28;20530;-59
2022/01/17 09:56:51;;;;;;;30.48;13.15;;;;;;;;;;5047547;28;20110;-59
2022/01/17 09:59:18;;;;;;;34.05;14.48;;;;;;;;;;5040020;28;20025;-59
2022/01/17 10:01:45;;;;;;;37.38;15.15;;;;;;;;;;5045952;28;20412;-58
2022/01/17 10:04:11;;;;;;;31.63;14.43;;;;;;;;;;5048992;28;20024;-59
2022/01/17 10:06:39;;;;;;;29.30;14.32;;;;;;;;;;5049189;28;20048;-59
2022/01/17 10:09:24;;;;;;;32.13;14.10;;;;;;;;;;5048775;28;20063;-59
2022/01/17 10:12:05;;;;;;;31.27;13.88;;;;;;;;;;5047716;28;20040;-59
2022/01/17 10:14:40;;;;;;;32.92;13.75;;;;;;;;;;5043885;28;20459;-59
2022/01/17 10:17:11;;;;;;;29.38;13.95;;;;;;;;;;5049441;28;20521;-59
2022/01/17 10:19:38;;;;;;;32.35;14.45;;;;;;;;;;5047896;28;20028;-59
2022/01/17 10:22:11;;;;;;;27.90;14.27;;;;;;;;;;5046758;28;20029;-59
2022/01/17 10:25:04;;;;;;;33.03;15.77;;;;;;;;;;5049034;28;20039;-59
2022/01/17 10:30:42;;;;;;;33.05;15.10;;;;;;;;;;5046060;28;20035;-59
2022/01/17 10:35:41;;;;;;;34.33;15.75;;;;;;;;;;5050033;28;20063;-59
2022/01/17 10:38:08;;;;;;;34.78;15.60;;;;;;;;;;5038048;28;20029;-60
2022/01/17 10:40:34;;;;;;;32.78;15.68;;;;;;;;;;5037501;28;20488;-59
2022/01/17 10:43:02;;;;;;;35.15;14.55;;;;;;;;;;5048514;28;20044;-59
2022/01/17 10:45:33;;;;;;;32.25;15.35;;;;;;;;;;5043716;28;20624;-59
2022/01/17 10:48:00;;;;;;;36.70;16.13;;;;;;;;;;5042496;28;20088;-59
2022/01/17 10:50:29;;;;;;;32.53;15.70;;;;;;;;;;5034581;28;20032;-59
2022/01/17 10:52:56;;;;;;;32.45;15.15;;;;;;;;;;5047554;28;20041;-59
2022/01/17 10:55:26;;;;;;;31.20;14.02;;;;;;;;;;5046915;28;20032;-59
2022/01/17 10:57:53;;;;;;;30.30;14.40;;;;;;;;;;5047372;28;20041;-59
2022/01/17 11:00:24;;;;;;;34.15;15.98;;;;;;;;;;5046279;28;20072;-59
2022/01/17 11:02:52;;;;;;;33.80;15.77;;;;;;;;;;5041675;28;20037;-58
2022/01/17 11:05:21;;;;;;;35.80;16.73;;;;;;;;;;5042904;28;20082;-60
2022/01/17 11:07:51;;;;;;;33.22;15.30;;;;;;;;;;5040316;28;20040;-60
2022/01/17 11:10:25;;;;;;;34.88;15.23;;;;;;;;;;5029864;28;20491;-57
2022/01/17 11:12:52;;;;;;;31.02;13.52;;;;;;;;;;5046700;28;20033;-56
2022/01/17 11:15:20;;;;;;;31.35;13.95;;;;;;;;;;5046682;28;20029;-57
2022/01/17 11:17:50;;;;;;;30.13;14.50;;;;;;;;;;5046626;28;20021;-55
2022/01/17 11:20:16;;;;;;;28.88;14.13;;;;;;;;;;5046170;28;20567;-55
2022/01/17 11:22:43;;;;;;;31.50;14.57;;;;;;;;;;5047278;28;20116;-55
2022/01/17 11:25:15;;;;;;;28.52;13.40;;;;;;;;;;5044312;28;20024;-55
2022/01/17 11:27:41;;;;;;;30.45;13.30;;;;;;;;;;5045025;28;20037;-58
2022/01/17 11:30:08;;;;;;;35.25;14.93;;;;;;;;;;5044185;28;20262;-55
2022/01/17 11:32:34;;;;;;;31.20;13.68;;;;;;;;;;5040140;28;20040;-57
2022/01/17 11:35:02;;;;;;;28.65;13.63;;;;;;;;;;5045766;28;20025;-58
2022/01/17 11:37:32;;;;;;;30.67;13.52;;;;;;;;;;5047439;28;20085;-58
2022/01/17 11:39:58;;;;;;;31.50;14.15;;;;;;;;;;5046729;28;20024;-57
2022/01/17 11:42:30;;;;;;;30.77;14.27;;;;;;;;;;5046468;28;20037;-58
2022/01/17 11:44:56;;;;;;;34.17;14.48;;;;;;;;;;5046868;28;20036;-57
2022/01/17 11:47:46;;;;;;;27.80;11.98;;;;;;;;;;5043201;28;20041;-58
2022/01/17 11:50:31;;;;;;;30.52;13.02;;;;;;;;;;5037267;28;20041;-58
2022/01/17 11:53:00;;;;;;;31.30;14.07;;;;;;;;;;5045937;28;20043;-58
2022/01/17 11:55:42;;;;;;;27.83;12.55;;;;;;;;;;5045198;28;20025;-58
2022/01/17 11:58:22;;;;;;;29.33;12.70;;;;;;;;;;5041875;28;20108;-58
2022/01/17 12:01:00;;;;;;;29.98;14.23;;;;;;;;;;5037197;28;20029;-59
2022/01/17 12:03:26;;;;;;;29.02;13.27;;;;;;;;;;5039906;28;20511;-60
2022/01/17 12:05:54;;;;;;;31.83;14.38;;;;;;;;;;5030165;28;20032;-59
2022/01/17 12:08:24;;;;;;;33.60;15.48;;;;;;;;;;5026354;28;20047;-58
2022/01/17 12:10:51;;;;;;;33.38;15.18;;;;;;;;;;5026495;28;20104;-59
2022/01/17 12:13:24;;;;;;;31.83;14.93;;;;;;;;;;5034244;28;20091;-58
2022/01/17 12:15:58;;;;;;;33.08;15.13;;;;;;;;;;5044757;28;20021;-58
2022/01/17 12:18:31;;;;;;;30.40;13.77;;;;;;;;;;5045930;28;20361;-58
2022/01/17 12:20:57;;;;;;;36.53;14.43;;;;;;;;;;5027877;28;20033;-60
2022/01/17 12:23:27;;;;;;;33.47;13.75;;;;;;;;;;5041003;28;20127;-60
2022/01/17 12:25:53;;;;;;;32.97;14.88;;;;;;;;;;5040401;28;20962;-60
2022/01/17 12:28:20;;;;;;;30.23;13.27;;;;;;;;;;5043633;28;20636;-59
2022/01/17 12:30:55;;;;;;;32.47;13.40;;;;;;;;;;5042811;28;20096;-59
2022/01/17 12:33:30;;;;;;;29.25;13.70;;;;;;;;;;5046090;28;20530;-59
2022/01/17 12:35:59;;;;;;;31.05;13.48;;;;;;;;;;5063537;28;20021;-59
2022/01/17 12:38:31;;;;;;;33.30;14.27;;;;;;;;;;5046253;28;20025;-59
2022/01/17 12:40:57;;;;;;;31.23;14.20;;;;;;;;;;5046718;28;20384;-59
2022/01/17 12:43:29;;;;;;;30.90;12.98;;;;;;;;;;5046992;28;20048;-59
2022/01/17 12:45:59;;;;;;;29.95;14.60;;;;;;;;;;5039953;28;20033;-58
2022/01/17 12:48:25;;;;;;;28.67;13.20;;;;;;;;;;5030803;28;20030;-59
2022/01/17 12:50:52;;;;;;;33.85;14.60;;;;;;;;;;5042049;28;20437;-58
2022/01/17 12:53:19;;;;;;;37.20;15.20;;;;;;;;;;5042839;28;20360;-58
2022/01/17 12:55:50;;;;;;;35.30;15.52;;;;;;;;;;5026996;28;20476;-58
2022/01/17 12:58:16;;;;;;;32.90;13.77;;;;;;;;;;5026761;28;20048;-59
2022/01/17 13:00:50;;;;;;;32.88;14.20;;;;;;;;;;5037878;28;20111;-58
2022/01/17 13:03:18;;;;;;;29.65;13.25;;;;;;;;;;5044498;28;20036;-59
2022/01/17 13:05:44;;;;;;;34.35;14.38;;;;;;;;;;5045687;28;20025;-59
2022/01/17 13:08:11;;;;;;;33.55;15.23;;;;;;;;;;5046357;28;20100;-59
2022/01/17 13:10:37;;;;;;;38.85;16.17;;;;;;;;;;5046263;28;20048;-58
2022/01/17 13:13:03;;;;;;;37.15;15.27;;;;;;;;;;5045684;28;20041;-57
2022/01/17 13:15:29;;;;;;;33.13;15.68;;;;;;;;;;5045650;28;20032;-59
2022/01/17 13:17:56;;;;;;;33.13;14.45;;;;;;;;;;5046014;28;20077;-58
2022/01/17 13:20:22;;;;;;;38.15;16.25;;;;;;;;;;5044270;28;20528;-58
2022/01/17 13:23:00;;;;;;;32.47;14.38;;;;;;;;;;5044169;28;20048;-58
2022/01/17 13:25:27;;;;;;;32.03;14.90;;;;;;;;;;5040585;28;20507;-58
2022/01/17 13:27:55;;;;;;;33.17;14.95;;;;;;;;;;5045327;28;20570;-58
2022/01/17 13:30:21;;;;;;;33.03;15.05;;;;;;;;;;5043895;28;20025;-59
2022/01/17 13:32:47;;;;;;;32.25;14.00;;;;;;;;;;5042430;28;20443;-58
2022/01/17 13:35:15;;;;;;;34.50;14.68;;;;;;;;;;5031725;28;20049;-58
2022/01/17 13:37:42;;;;;;;33.83;14.93;;;;;;;;;;5041370;28;20381;-58
2022/01/17 13:40:12;;;;;;;32.47;15.95;;;;;;;;;;5045501;28;20032;-58
2022/01/17 13:42:44;;;;;;;34.63;15.27;;;;;;;;;;5046586;28;20082;-58
2022/01/17 13:45:10;;;;;;;41.08;17.95;;;;;;;;;;5045203;28;20106;-58
2022/01/17 13:47:38;;;;;;;38.30;16.60;;;;;;;;;;5045224;28;20071;-59
2022/01/17 13:50:05;;;;;;;42.22;17.15;;;;;;;;;;5028135;28;20045;-59
2022/01/17 13:52:31;;;;;;;37.10;16.35;;;;;;;;;;5043084;28;20033;-59
2022/01/17 13:54:57;;;;;;;43.75;18.75;;;;;;;;;;5040447;28;20396;-59
2022/01/17 13:57:28;;;;;;;52.22;21.77;;;;;;;;;;5045203;28;20274;-59
2022/01/17 13:59:55;;;;;;;46.92;21.73;;;;;;;;;;5045098;28;20025;-58
2022/01/17 14:02:24;;;;;;;48.28;20.08;;;;;;;;;;5045255;28;20348;-58
2022/01/17 14:04:52;;;;;;;42.55;18.73;;;;;;;;;;5044301;28;20025;-59
2022/01/17 14:07:22;;;;;;;48.22;20.02;;;;;;;;;;5044674;28;20041;-58
2022/01/17 14:09:49;;;;;;;53.00;21.15;;;;;;;;;;5044664;28;20029;-58
2022/01/17 14:12:15;;;;;;;46.88;20.27;;;;;;;;;;5044771;28;20025;-58
2022/01/17 14:14:48;;;;;;;45.10;19.00;;;;;;;;;;5044923;28;20029;-58
2022/01/17 14:17:25;;;;;;;43.72;18.75;;;;;;;;;;5045688;28;20504;-58
2022/01/17 14:19:53;;;;;;;39.78;17.27;;;;;;;;;;5048837;28;20029;-58
2022/01/17 14:22:19;;;;;;;36.15;15.23;;;;;;;;;;5048639;28;20029;-58
2022/01/17 14:24:49;;;;;;;32.78;15.30;;;;;;;;;;5048953;28;20408;-58
2022/01/17 14:27:20;;;;;;;37.80;15.60;;;;;;;;;;5048428;28;20056;-58
2022/01/17 14:29:48;;;;;;;33.97;14.55;;;;;;;;;;5048666;28;20026;-58
2022/01/17 14:32:15;;;;;;;28.60;13.57;;;;;;;;;;5048889;28;20033;-58
2022/01/17 14:34:43;;;;;;;29.92;14.20;;;;;;;;;;5048450;28;20055;-58
2022/01/17 14:37:10;;;;;;;32.28;14.13;;;;;;;;;;5048543;28;20033;-58
2022/01/17 14:39:37;;;;;;;28.83;12.95;;;;;;;;;;5048415;28;20500;-58
2022/01/17 14:42:05;;;;;;;26.48;13.00;;;;;;;;;;5046735;28;20427;-58
2022/01/17 14:44:32;;;;;;;23.67;11.43;;;;;;;;;;5028389;28;20469;-58
2022/01/17 14:47:01;;;;;;;22.13;10.40;;;;;;;;;;5028396;28;20038;-58